Time;durP1;ratioP1;P1;durP2;ratioP2;P2;SDS_P1;SDS_P2;PMS_P1;PMS_P2;Temp;Humidity;BMP_temperature;BMP_pressure;BME280_temperature;BME280_humidity;BME280_pressure;Samples;Min_cycle;Max_cycle;Signal;HPM_P1;HPM_P2
2023/03/11 00:01:22;;;;;;;1.20;0.60;;;;;;;-128.00;-1.00;-1.00;97846;295;1003265;-29
2023/03/11 00:03:48;;;;;;;1.20;0.50;;;;;;;-128.00;-1.00;-1.00;97905;295;1003755;-33
2023/03/11 00:06:13;;;;;;;0.60;0.30;;;;;;;-128.00;-1.00;-1.00;97756;296;1003401;-34
2023/03/11 00:08:40;;;;;;;0.40;0.40;;;;;;;-128.00;-1.00;-1.00;98051;295;1003648;-30
2023/03/11 00:11:05;;;;;;;0.50;0.40;;;;;;;-128.00;-1.00;-1.00;97979;295;1003025;-34
2023/03/11 00:13:31;;;;;;;1.30;0.40;;;;;;;-128.00;-1.00;-1.00;97885;295;1005184;-33
2023/03/11 00:15:58;;;;;;;0.80;0.30;;;;;;;-128.00;-1.00;-1.00;97978;295;1003362;-34
2023/03/11 00:18:25;;;;;;;1.40;0.40;;;;;;;-128.00;-1.00;-1.00;97904;295;1002877;-33
2023/03/11 00:20:51;;;;;;;0.90;0.50;;;;;;;-128.00;-1.00;-1.00;97922;284;1003197;-33
2023/03/11 00:23:17;;;;;;;1.20;0.30;;;;;;;-128.00;-1.00;-1.00;97907;295;1003240;-28
2023/03/11 00:25:44;;;;;;;1.40;0.60;;;;;;;-128.00;-1.00;-1.00;97941;295;1004705;-35
2023/03/11 00:28:10;;;;;;;0.60;0.30;;;;;;;-128.00;-1.00;-1.00;98110;295;1004594;-29
2023/03/11 00:30:36;;;;;;;1.40;0.70;;;;;;;-128.00;-1.00;-1.00;97962;295;1002700;-34
2023/03/11 00:33:02;;;;;;;0.90;0.70;;;;;;;-128.00;-1.00;-1.00;97858;295;1003466;-29
2023/03/11 00:35:30;;;;;;;0.90;0.30;;;;;;;-128.00;-1.00;-1.00;98141;295;1003622;-29
2023/03/11 00:37:57;;;;;;;0.90;0.30;;;;;;;-128.00;-1.00;-1.00;97982;295;1004237;-28
2023/03/11 00:40:23;;;;;;;1.00;0.40;;;;;;;-128.00;-1.00;-1.00;97923;295;1003643;-29
2023/03/11 00:42:49;;;;;;;0.60;0.50;;;;;;;-128.00;-1.00;-1.00;97283;295;1005309;-28
2023/03/11 00:45:15;;;;;;;0.60;0.50;;;;;;;-128.00;-1.00;-1.00;97979;295;1004617;-32
2023/03/11 00:47:41;;;;;;;0.90;0.50;;;;;;;-128.00;-1.00;-1.00;97911;295;1003896;-31
2023/03/11 00:50:08;;;;;;;0.80;0.40;;;;;;;-128.00;-1.00;-1.00;97816;295;1003798;-32
2023/03/11 00:52:34;;;;;;;1.20;0.50;;;;;;;-128.00;-1.00;-1.00;97783;295;1005154;-32
2023/03/11 00:55:00;;;;;;;4.00;0.40;;;;;;;-128.00;-1.00;-1.00;97994;295;1003894;-30
2023/03/11 00:57:28;;;;;;;13.30;1.20;;;;;;;-128.00;-1.00;-1.00;97986;284;1003683;-33
2023/03/11 00:59:54;;;;;;;0.80;0.40;;;;;;;-128.00;-1.00;-1.00;98025;295;1003129;-34
2023/03/11 01:02:20;;;;;;;1.40;0.70;;;;;;;-128.00;-1.00;-1.00;97870;295;1004247;-32
2023/03/11 01:04:45;;;;;;;0.50;0.50;;;;;;;-128.00;-1.00;-1.00;97857;295;1003061;-36
2023/03/11 01:07:11;;;;;;;0.40;0.30;;;;;;;-128.00;-1.00;-1.00;97937;295;1004062;-33
2023/03/11 01:09:36;;;;;;;1.50;0.50;;;;;;;-128.00;-1.00;-1.00;97937;295;1004501;-33
2023/03/11 01:12:02;;;;;;;0.50;0.40;;;;;;;-128.00;-1.00;-1.00;97814;295;1003041;-31
2023/03/11 01:14:28;;;;;;;0.70;0.40;;;;;;;-128.00;-1.00;-1.00;97986;295;1003150;-29
2023/03/11 01:16:54;;;;;;;1.00;0.70;;;;;;;-128.00;-1.00;-1.00;97967;295;1004366;-29
2023/03/11 01:19:19;;;;;;;1.70;0.50;;;;;;;-128.00;-1.00;-1.00;97949;295;1003358;-33
2023/03/11 01:21:45;;;;;;;0.80;0.50;;;;;;;-128.00;-1.00;-1.00;97919;295;1003051;-32
2023/03/11 01:24:11;;;;;;;0.30;0.30;;;;;;;-128.00;-1.00;-1.00;97927;295;1004856;-33
2023/03/11 01:26:36;;;;;;;0.50;0.40;;;;;;;-128.00;-1.00;-1.00;97873;295;1003747;-33
2023/03/11 01:29:03;;;;;;;0.50;0.40;;;;;;;-128.00;-1.00;-1.00;97964;295;1003465;-34
2023/03/11 01:31:28;;;;;;;0.80;0.50;;;;;;;-128.00;-1.00;-1.00;97966;295;1003803;-31
2023/03/11 01:33:54;;;;;;;0.60;0.50;;;;;;;-128.00;-1.00;-1.00;97877;283;1004616;-28
2023/03/11 01:36:19;;;;;;;0.60;0.40;;;;;;;-128.00;-1.00;-1.00;97857;295;1003450;-29
2023/03/11 01:38:45;;;;;;;1.60;1.00;;;;;;;-128.00;-1.00;-1.00;98012;295;1004340;-30
2023/03/11 01:41:11;;;;;;;1.10;0.50;;;;;;;-128.00;-1.00;-1.00;97843;295;1003120;-33
2023/03/11 01:43:47;;;;;;;3.20;0.50;;;;;;;-128.00;-1.00;-1.00;98013;295;1002979;-30
2023/03/11 01:46:26;;;;;;;1.00;0.40;;;;;;;-128.00;-1.00;-1.00;97733;288;1003730;-39
2023/03/11 01:48:54;;;;;;;0.90;0.50;;;;;;;-128.00;-1.00;-1.00;97975;295;1004027;-30
2023/03/11 01:51:26;;;;;;;1.00;0.70;;;;;;;-128.00;-1.00;-1.00;97801;296;1003981;-34
2023/03/11 01:53:52;;;;;;;1.60;0.70;;;;;;;-128.00;-1.00;-1.00;97921;295;1003296;-29
2023/03/11 01:56:17;;;;;;;1.60;0.80;;;;;;;-128.00;-1.00;-1.00;97909;295;1003461;-29
2023/03/11 01:58:44;;;;;;;1.30;0.90;;;;;;;-128.00;-1.00;-1.00;98031;295;1003024;-36
2023/03/11 02:01:10;;;;;;;1.20;0.70;;;;;;;-128.00;-1.00;-1.00;97792;295;1003322;-35
2023/03/11 02:03:38;;;;;;;1.20;0.70;;;;;;;-128.00;-1.00;-1.00;97868;295;1003049;-31
2023/03/11 02:06:06;;;;;;;1.10;0.40;;;;;;;-128.00;-1.00;-1.00;97828;283;1003119;-32
2023/03/11 02:08:33;;;;;;;1.30;0.70;;;;;;;-128.00;-1.00;-1.00;97827;287;1003336;-31
2023/03/11 02:10:58;;;;;;;1.80;0.90;;;;;;;-128.00;-1.00;-1.00;97911;295;1003066;-37
2023/03/11 02:13:24;;;;;;;1.40;0.90;;;;;;;-128.00;-1.00;-1.00;97924;295;1003484;-31
2023/03/11 02:15:49;;;;;;;1.10;0.90;;;;;;;-128.00;-1.00;-1.00;97807;295;1003279;-35
2023/03/11 02:18:19;;;;;;;1.80;1.00;;;;;;;-128.00;-1.00;-1.00;97908;287;1004151;-36
2023/03/11 02:21:02;;;;;;;2.50;0.90;;;;;;;-128.00;-1.00;-1.00;97828;295;1002850;-33
2023/03/11 02:23:33;;;;;;;0.30;0.30;;;;;;;-128.00;-1.00;-1.00;97881;283;1003694;-31
2023/03/11 02:26:19;;;;;;;1.00;0.70;;;;;;;-128.00;-1.00;-1.00;97875;295;1003855;-34
2023/03/11 02:28:45;;;;;;;4.00;1.30;;;;;;;-128.00;-1.00;-1.00;97864;283;1002958;-32
2023/03/11 02:31:11;;;;;;;4.00;1.20;;;;;;;-128.00;-1.00;-1.00;97799;295;1002921;-31
2023/03/11 02:33:37;;;;;;;1.00;0.70;;;;;;;-128.00;-1.00;-1.00;97891;295;1002933;-34
2023/03/11 02:36:03;;;;;;;2.70;1.10;;;;;;;-128.00;-1.00;-1.00;97985;295;1002582;-34
2023/03/11 02:38:29;;;;;;;12.20;0.70;;;;;;;-128.00;-1.00;-1.00;97887;287;1002809;-34
2023/03/11 02:40:59;;;;;;;0.80;0.50;;;;;;;-128.00;-1.00;-1.00;97957;295;1003867;-34
2023/03/11 02:43:35;;;;;;;4.90;0.80;;;;;;;-128.00;-1.00;-1.00;97982;283;1003825;-36
2023/03/11 02:46:01;;;;;;;3.80;0.90;;;;;;;-128.00;-1.00;-1.00;97820;295;1005361;-32
2023/03/11 02:48:28;;;;;;;2.40;1.60;;;;;;;-128.00;-1.00;-1.00;97971;295;1003106;-35
2023/03/11 02:50:53;;;;;;;4.70;1.40;;;;;;;-128.00;-1.00;-1.00;97779;285;1004061;-32
2023/03/11 02:53:19;;;;;;;2.70;1.40;;;;;;;-128.00;-1.00;-1.00;97844;295;1002576;-35
2023/03/11 02:55:44;;;;;;;2.60;1.40;;;;;;;-128.00;-1.00;-1.00;97960;295;1003864;-35
2023/03/11 02:58:10;;;;;;;0.90;0.80;;;;;;;-128.00;-1.00;-1.00;97876;295;1003573;-34
2023/03/11 03:00:36;;;;;;;7.90;1.10;;;;;;;-128.00;-1.00;-1.00;98037;295;1003592;-35
2023/03/11 03:03:02;;;;;;;3.20;1.20;;;;;;;-128.00;-1.00;-1.00;97864;295;1003317;-34
2023/03/11 03:05:27;;;;;;;6.10;1.20;;;;;;;-128.00;-1.00;-1.00;97948;295;1003492;-34
2023/03/11 03:07:53;;;;;;;2.60;1.30;;;;;;;-128.00;-1.00;-1.00;97882;295;1004913;-31
2023/03/11 03:10:19;;;;;;;1.80;1.30;;;;;;;-128.00;-1.00;-1.00;97734;295;1003872;-35
2023/03/11 03:12:45;;;;;;;2.10;1.10;;;;;;;-128.00;-1.00;-1.00;97925;295;1004454;-33
2023/03/11 03:15:10;;;;;;;1.10;0.90;;;;;;;-128.00;-1.00;-1.00;98057;295;1003136;-35
2023/03/11 03:17:36;;;;;;;1.90;0.90;;;;;;;-128.00;-1.00;-1.00;97791;297;1004033;-35
2023/03/11 03:20:06;;;;;;;1.60;0.80;;;;;;;-128.00;-1.00;-1.00;97981;284;1003183;-37
2023/03/11 03:22:31;;;;;;;2.20;0.50;;;;;;;-128.00;-1.00;-1.00;97774;295;1002732;-36
2023/03/11 03:24:57;;;;;;;1.80;1.10;;;;;;;-128.00;-1.00;-1.00;97944;295;1003567;-35
2023/03/11 03:27:22;;;;;;;2.40;1.20;;;;;;;-128.00;-1.00;-1.00;97981;295;1003459;-31
2023/03/11 03:29:48;;;;;;;4.90;1.60;;;;;;;-128.00;-1.00;-1.00;97926;295;1003841;-31
2023/03/11 03:32:14;;;;;;;1.50;0.50;;;;;;;-128.00;-1.00;-1.00;97881;284;1003180;-36
2023/03/11 03:34:39;;;;;;;1.50;0.40;;;;;;;-128.00;-1.00;-1.00;97768;295;1004664;-33
2023/03/11 03:37:05;;;;;;;2.30;0.90;;;;;;;-128.00;-1.00;-1.00;97873;295;1003928;-32
2023/03/11 03:39:31;;;;;;;0.90;0.50;;;;;;;-128.00;-1.00;-1.00;97925;295;1003054;-31
2023/03/11 03:41:57;;;;;;;2.20;0.90;;;;;;;-128.00;-1.00;-1.00;98004;295;1002955;-32
2023/03/11 03:44:23;;;;;;;1.50;1.10;;;;;;;-128.00;-1.00;-1.00;97980;295;1003533;-36
2023/03/11 03:46:48;;;;;;;2.40;1.20;;;;;;;-128.00;-1.00;-1.00;97825;295;1003243;-30
2023/03/11 03:49:14;;;;;;;1.90;1.20;;;;;;;-128.00;-1.00;-1.00;97877;295;1003664;-34
2023/03/11 03:51:40;;;;;;;0.20;0.20;;;;;;;-128.00;-1.00;-1.00;97985;295;1005505;-34
2023/03/11 03:54:05;;;;;;;0.70;0.60;;;;;;;-128.00;-1.00;-1.00;97855;295;1004522;-32
2023/03/11 03:56:31;;;;;;;1.40;0.90;;;;;;;-128.00;-1.00;-1.00;97995;295;1003949;-31
2023/03/11 03:58:57;;;;;;;1.00;0.90;;;;;;;-128.00;-1.00;-1.00;97821;295;1004327;-34
2023/03/11 04:01:22;;;;;;;1.00;0.70;;;;;;;-128.00;-1.00;-1.00;97861;295;1005331;-34
2023/03/11 04:03:48;;;;;;;1.30;0.60;;;;;;;-128.00;-1.00;-1.00;97906;295;1003030;-34
2023/03/11 04:06:19;;;;;;;1.40;0.50;;;;;;;-128.00;-1.00;-1.00;98040;295;1003102;-34
2023/03/11 04:08:45;;;;;;;3.90;1.00;;;;;;;-128.00;-1.00;-1.00;97847;295;1004177;-34
2023/03/11 04:11:11;;;;;;;1.10;0.60;;;;;;;-128.00;-1.00;-1.00;97952;295;1003768;-34
2023/03/11 04:13:37;;;;;;;1.20;0.80;;;;;;;-128.00;-1.00;-1.00;98001;295;1002580;-34
2023/03/11 04:16:03;;;;;;;2.80;1.30;;;;;;;-128.00;-1.00;-1.00;97900;295;1003870;-34
2023/03/11 04:18:29;;;;;;;2.20;1.10;;;;;;;-128.00;-1.00;-1.00;97990;284;1004285;-34
2023/03/11 04:20:55;;;;;;;6.20;1.70;;;;;;;-128.00;-1.00;-1.00;97828;295;1002912;-34
2023/03/11 04:23:20;;;;;;;1.40;1.10;;;;;;;-128.00;-1.00;-1.00;97823;285;1005474;-34
2023/03/11 04:25:46;;;;;;;1.50;0.60;;;;;;;-128.00;-1.00;-1.00;97780;297;1003485;-34
2023/03/11 04:28:12;;;;;;;0.80;0.60;;;;;;;-128.00;-1.00;-1.00;97965;295;1003148;-34
2023/03/11 04:30:38;;;;;;;3.40;0.80;;;;;;;-128.00;-1.00;-1.00;98066;295;1004440;-32
2023/03/11 04:33:03;;;;;;;1.10;0.60;;;;;;;-128.00;-1.00;-1.00;97918;295;1003993;-34
2023/03/11 04:35:29;;;;;;;1.60;0.80;;;;;;;-128.00;-1.00;-1.00;97894;295;1003399;-31
2023/03/11 05:15:07;;;;;;;0.10;0.10;;;;;;;-102.16;19.20;19358.41;98320;296;1543670;-34
2023/03/11 05:17:34;;;;;;;0.40;0.40;;;;;;;-128.00;-1.00;-1.00;97462;287;1003241;-36
2023/03/11 05:19:59;;;;;;;0.40;0.40;;;;;;;-128.00;-1.00;-1.00;97890;296;1003360;-32
2023/03/11 05:22:25;;;;;;;0.80;0.40;;;;;;;-128.00;-1.00;-1.00;97837;297;1002833;-35
2023/03/11 05:24:51;;;;;;;1.00;0.40;;;;;;;-128.00;-1.00;-1.00;97818;296;1004257;-32
2023/03/11 05:27:16;;;;;;;0.40;0.30;;;;;;;-128.00;-1.00;-1.00;97800;297;1003080;-34
2023/03/11 05:29:43;;;;;;;0.30;0.20;;;;;;;-128.00;-1.00;-1.00;97837;285;1003718;-36
2023/03/11 05:32:10;;;;;;;0.40;0.30;;;;;;;-128.00;-1.00;-1.00;97872;296;1003831;-31
2023/03/11 05:34:36;;;;;;;0.10;0.10;;;;;;;-128.00;-1.00;-1.00;97827;285;1004698;-33
2023/03/11 05:37:02;;;;;;;0.40;0.20;;;;;;;-128.00;-1.00;-1.00;97838;297;1004400;-31
2023/03/11 05:39:28;;;;;;;0.30;0.20;;;;;;;-128.00;-1.00;-1.00;97991;296;1004534;-35
2023/03/11 05:41:55;;;;;;;0.20;0.10;;;;;;;-128.00;-1.00;-1.00;97920;285;1004921;-31
2023/03/11 05:44:21;;;;;;;0.20;0.20;;;;;;;-128.00;-1.00;-1.00;97789;285;1003648;-31
2023/03/11 05:46:47;;;;;;;0.30;0.30;;;;;;;-128.00;-1.00;-1.00;97894;285;1003553;-29
2023/03/11 05:49:13;;;;;;;0.70;0.30;;;;;;;-128.00;-1.00;-1.00;97821;296;1005194;-30
2023/03/11 05:51:39;;;;;;;0.40;0.10;;;;;;;-128.00;-1.00;-1.00;97809;296;1004374;-31
2023/03/11 05:54:10;;;;;;;0.10;0.10;;;;;;;-128.00;-1.00;-1.00;97836;285;1004295;-33
2023/03/11 05:56:35;;;;;;;0.30;0.10;;;;;;;-128.00;-1.00;-1.00;97973;285;1003120;-34
2023/03/11 05:59:01;;;;;;;0.90;0.10;;;;;;;-128.00;-1.00;-1.00;97872;296;1004027;-34
2023/03/11 06:01:27;;;;;;;0.40;0.20;;;;;;;-128.00;-1.00;-1.00;97906;296;1004091;-29
2023/03/11 06:03:52;;;;;;;2.10;0.30;;;;;;;-128.00;-1.00;-1.00;97808;296;1003225;-29
2023/03/11 06:06:19;;;;;;;0.50;0.30;;;;;;;-128.00;-1.00;-1.00;97958;296;1003229;-29
2023/03/11 06:08:48;;;;;;;0.10;0.10;;;;;;;-128.00;-1.00;-1.00;97810;296;1003660;-33
2023/03/11 06:11:14;;;;;;;0.30;0.10;;;;;;;-128.00;-1.00;-1.00;97673;296;1003462;-30
2023/03/11 06:13:40;;;;;;;0.20;0.20;;;;;;;-128.00;-1.00;-1.00;97889;295;1004701;-33
2023/03/11 06:16:06;;;;;;;0.10;0.10;;;;;;;-128.00;-1.00;-1.00;97954;295;1003679;-29
2023/03/11 06:18:32;;;;;;;0.90;0.20;;;;;;;-128.00;-1.00;-1.00;97759;296;1004356;-35
2023/03/11 06:20:58;;;;;;;1.10;0.20;;;;;;;-128.00;-1.00;-1.00;97910;295;1003207;-30
2023/03/11 06:23:23;;;;;;;0.20;0.20;;;;;;;-128.00;-1.00;-1.00;97830;295;1003279;-32
2023/03/11 06:25:55;;;;;;;0.80;0.30;;;;;;;-128.00;-1.00;-1.00;97932;296;1004459;-31
2023/03/11 06:28:20;;;;;;;0.20;0.10;;;;;;;-128.00;-1.00;-1.00;97748;296;1003726;-28
2023/03/11 06:30:46;;;;;;;0.20;0.10;;;;;;;-128.00;-1.00;-1.00;97766;284;1003164;-30
2023/03/11 06:33:13;;;;;;;0.90;0.30;;;;;;;-128.00;-1.00;-1.00;97811;295;1005018;-30
2023/03/11 06:35:38;;;;;;;3.60;0.30;;;;;;;-128.00;-1.00;-1.00;97829;296;1003462;-33
2023/03/11 06:38:04;;;;;;;0.80;0.50;;;;;;;-128.00;-1.00;-1.00;97971;296;1003740;-33
2023/03/11 06:40:30;;;;;;;0.30;0.30;;;;;;;-128.00;-1.00;-1.00;97950;295;1003678;-33
2023/03/11 06:42:55;;;;;;;0.60;0.40;;;;;;;-128.00;-1.00;-1.00;98021;295;1003030;-29
2023/03/11 06:45:22;;;;;;;0.50;0.30;;;;;;;-128.00;-1.00;-1.00;97822;297;1002444;-35
2023/03/11 06:47:47;;;;;;;1.40;0.40;;;;;;;-128.00;-1.00;-1.00;97924;295;1003584;-30
2023/03/11 06:50:13;;;;;;;1.40;1.20;;;;;;;-128.00;-1.00;-1.00;97889;295;1004132;-34
2023/03/11 06:52:39;;;;;;;0.50;0.40;;;;;;;-128.00;-1.00;-1.00;97938;295;1002865;-35
2023/03/11 06:55:05;;;;;;;1.90;0.60;;;;;;;-128.00;-1.00;-1.00;97865;295;1004128;-33
2023/03/11 06:57:32;;;;;;;1.00;0.50;;;;;;;-128.00;-1.00;-1.00;97954;295;1004343;-31
2023/03/11 06:59:58;;;;;;;0.70;0.50;;;;;;;-128.00;-1.00;-1.00;97854;284;1004504;-31
2023/03/11 07:02:23;;;;;;;1.50;1.40;;;;;;;-128.00;-1.00;-1.00;97875;284;1004375;-34
2023/03/11 07:04:49;;;;;;;3.70;3.20;;;;;;;-128.00;-1.00;-1.00;97795;297;1002744;-30
2023/03/11 07:07:15;;;;;;;7.90;7.30;;;;;;;-128.00;-1.00;-1.00;97816;295;1003507;-30
2023/03/11 07:09:40;;;;;;;30.00;21.60;;;;;;;-128.00;-1.00;-1.00;97898;295;1003413;-33
2023/03/11 07:12:06;;;;;;;4.80;4.40;;;;;;;-128.00;-1.00;-1.00;97872;284;1002961;-28
2023/03/11 07:14:32;;;;;;;4.90;4.10;;;;;;;-128.00;-1.00;-1.00;97959;295;1004015;-33
2023/03/11 07:16:58;;;;;;;3.00;2.70;;;;;;;-128.00;-1.00;-1.00;97830;295;1003080;-33
2023/03/11 07:19:23;;;;;;;2.80;2.60;;;;;;;-128.00;-1.00;-1.00;98048;295;1004037;-33
2023/03/11 07:21:50;;;;;;;2.10;1.50;;;;;;;-128.00;-1.00;-1.00;97990;295;1003994;-31
2023/03/11 07:24:15;;;;;;;1.70;1.30;;;;;;;-128.00;-1.00;-1.00;97933;295;1003099;-31
2023/03/11 07:26:41;;;;;;;1.90;1.60;;;;;;;-128.00;-1.00;-1.00;97955;295;1004897;-31
2023/03/11 07:29:07;;;;;;;2.90;2.60;;;;;;;-128.00;-1.00;-1.00;97865;295;1004352;-36
2023/03/11 07:31:33;;;;;;;1.50;1.30;;;;;;;-128.00;-1.00;-1.00;97834;288;1004194;-31
2023/03/11 07:34:01;;;;;;;2.50;1.60;;;;;;;-128.00;-1.00;-1.00;97819;295;1003770;-50
2023/03/11 07:36:27;;;;;;;1.30;1.10;;;;;;;-128.00;-1.00;-1.00;98016;295;1003427;-32
2023/03/11 07:38:58;;;;;;;1.10;0.80;;;;;;;-128.00;-1.00;-1.00;97863;288;1002539;-31
2023/03/11 07:41:24;;;;;;;1.40;0.70;;;;;;;-128.00;-1.00;-1.00;97827;295;1002959;-33
2023/03/11 07:43:55;;;;;;;1.50;1.30;;;;;;;-128.00;-1.00;-1.00;97811;295;1003384;-32
2023/03/11 07:46:21;;;;;;;1.10;0.90;;;;;;;-128.00;-1.00;-1.00;97812;295;1004607;-34
2023/03/11 07:48:47;;;;;;;2.00;1.20;;;;;;;-128.00;-1.00;-1.00;97902;295;1004387;-36
2023/03/11 07:51:15;;;;;;;1.80;1.30;;;;;;;-128.00;-1.00;-1.00;97909;295;1004003;-40
2023/03/11 07:53:41;;;;;;;2.30;1.90;;;;;;;-128.00;-1.00;-1.00;97860;295;1003011;-35
2023/03/11 07:56:07;;;;;;;1.90;1.10;;;;;;;-128.00;-1.00;-1.00;97853;295;1002848;-35
2023/03/11 07:58:33;;;;;;;1.90;1.20;;;;;;;-128.00;-1.00;-1.00;97972;295;1002969;-34
2023/03/11 08:01:04;;;;;;;0.90;0.90;;;;;;;-128.00;-1.00;-1.00;97795;295;1003868;-35
2023/03/11 08:03:29;;;;;;;1.00;1.00;;;;;;;-128.00;-1.00;-1.00;97776;297;1004916;-34
2023/03/11 08:05:55;;;;;;;1.20;0.80;;;;;;;-128.00;-1.00;-1.00;97769;295;1003639;-33
2023/03/11 08:08:20;;;;;;;2.00;1.50;;;;;;;-128.00;-1.00;-1.00;97864;297;1003393;-32
2023/03/11 08:10:46;;;;;;;1.70;0.90;;;;;;;-128.00;-1.00;-1.00;97846;295;1003273;-33
2023/03/11 08:13:12;;;;;;;1.50;0.80;;;;;;;-128.00;-1.00;-1.00;97874;295;1003477;-36
2023/03/11 08:15:38;;;;;;;3.60;1.00;;;;;;;-128.00;-1.00;-1.00;97769;295;1004433;-33
2023/03/11 08:18:04;;;;;;;1.30;0.80;;;;;;;-128.00;-1.00;-1.00;96248;295;2274616;-34
2023/03/11 08:20:29;;;;;;;2.90;1.30;;;;;;;-128.00;-1.00;-1.00;97827;295;1003405;-34
2023/03/11 08:22:55;;;;;;;1.00;0.60;;;;;;;-128.00;-1.00;-1.00;97781;297;1003864;-37
2023/03/11 08:25:21;;;;;;;0.80;0.50;;;;;;;-128.00;-1.00;-1.00;97906;295;1003191;-36
2023/03/11 08:27:47;;;;;;;0.90;0.70;;;;;;;-128.00;-1.00;-1.00;97889;295;1003542;-35
2023/03/11 08:30:13;;;;;;;1.10;0.80;;;;;;;-128.00;-1.00;-1.00;97796;298;1003729;-34
2023/03/11 08:32:39;;;;;;;1.40;0.80;;;;;;;-128.00;-1.00;-1.00;97915;295;1005304;-31
2023/03/11 08:35:05;;;;;;;1.30;0.60;;;;;;;-128.00;-1.00;-1.00;97937;295;1003469;-33
2023/03/11 08:37:30;;;;;;;0.80;0.60;;;;;;;-128.00;-1.00;-1.00;97926;295;1004492;-35
2023/03/11 08:39:56;;;;;;;2.00;0.90;;;;;;;-128.00;-1.00;-1.00;97870;296;1002817;-34
2023/03/11 08:42:22;;;;;;;3.20;0.90;;;;;;;-128.00;-1.00;-1.00;97812;296;1003208;-35
2023/03/11 08:44:48;;;;;;;2.50;0.90;;;;;;;-128.00;-1.00;-1.00;97892;288;1003174;-33
2023/03/11 08:47:13;;;;;;;1.60;1.00;;;;;;;-128.00;-1.00;-1.00;97777;296;1003745;-34
2023/03/11 08:49:39;;;;;;;1.70;0.90;;;;;;;-128.00;-1.00;-1.00;97816;296;1003091;-36
2023/03/11 08:52:05;;;;;;;1.00;0.80;;;;;;;-128.00;-1.00;-1.00;97846;296;1004722;-32
2023/03/11 08:54:31;;;;;;;2.10;0.90;;;;;;;-128.00;-1.00;-1.00;97982;296;1005567;-34
2023/03/11 08:56:57;;;;;;;2.10;0.90;;;;;;;-128.00;-1.00;-1.00;97933;296;1002925;-34
2023/03/11 08:59:23;;;;;;;6.60;1.30;;;;;;;-128.00;-1.00;-1.00;97869;284;1003775;-34
2023/03/11 09:01:48;;;;;;;1.30;0.80;;;;;;;-128.00;-1.00;-1.00;97890;296;1003078;-32
2023/03/11 09:04:14;;;;;;;2.50;1.40;;;;;;;-128.00;-1.00;-1.00;97740;296;1003825;-34
2023/03/11 09:06:43;;;;;;;2.00;1.10;;;;;;;-128.00;-1.00;-1.00;97772;300;1003223;-32
2023/03/11 09:09:13;;;;;;;2.20;1.40;;;;;;;-128.00;-1.00;-1.00;97970;284;1003187;-34
2023/03/11 09:11:39;;;;;;;2.20;1.50;;;;;;;-128.00;-1.00;-1.00;97936;296;1003941;-34
2023/03/11 09:14:05;;;;;;;2.80;1.70;;;;;;;-128.00;-1.00;-1.00;97835;296;1004136;-34
2023/03/11 09:16:31;;;;;;;1.90;1.40;;;;;;;-128.00;-1.00;-1.00;97838;296;1002603;-33
2023/03/11 09:18:59;;;;;;;1.80;1.20;;;;;;;-128.00;-1.00;-1.00;98021;296;1002951;-32
2023/03/11 09:21:25;;;;;;;2.30;1.60;;;;;;;-128.00;-1.00;-1.00;97776;296;1003231;-34
2023/03/11 09:23:50;;;;;;;2.10;1.30;;;;;;;-128.00;-1.00;-1.00;97791;295;1003404;-36
2023/03/11 09:26:16;;;;;;;1.50;1.00;;;;;;;-128.00;-1.00;-1.00;97877;296;1003409;-33
2023/03/11 09:28:42;;;;;;;1.50;1.00;;;;;;;-128.00;-1.00;-1.00;97825;296;1002994;-33
2023/03/11 09:31:07;;;;;;;3.10;1.90;;;;;;;-128.00;-1.00;-1.00;97790;297;1004154;-35
2023/03/11 09:33:37;;;;;;;2.90;1.60;;;;;;;-128.00;-1.00;-1.00;97939;284;1003510;-35
2023/03/11 09:36:03;;;;;;;2.20;1.90;;;;;;;-128.00;-1.00;-1.00;97826;297;1003365;-35
2023/03/11 09:38:29;;;;;;;3.30;2.00;;;;;;;-128.00;-1.00;-1.00;97983;288;1003084;-34
2023/03/11 09:41:00;;;;;;;1.10;0.80;;;;;;;-128.00;-1.00;-1.00;97768;296;1004457;-35
2023/03/11 09:43:49;;;;;;;2.90;2.20;;;;;;;-128.00;-1.00;-1.00;97812;296;1003092;-32
2023/03/11 09:46:39;;;;;;;3.30;2.40;;;;;;;-128.00;-1.00;-1.00;97853;296;1050492;-36
2023/03/11 09:49:25;;;;;;;3.80;2.30;;;;;;;-128.00;-1.00;-1.00;97849;296;1003651;-34
2023/03/11 09:51:57;;;;;;;2.40;2.00;;;;;;;-128.00;-1.00;-1.00;97827;295;1005382;-36
2023/03/11 09:54:22;;;;;;;3.10;2.20;;;;;;;-128.00;-1.00;-1.00;97856;295;1003021;-36
2023/03/11 09:56:48;;;;;;;2.60;2.20;;;;;;;-128.00;-1.00;-1.00;97830;295;1003050;-35
2023/03/11 09:59:17;;;;;;;3.00;2.20;;;;;;;-128.00;-1.00;-1.00;97818;287;1003483;-31
2023/03/11 10:01:44;;;;;;;5.40;2.00;;;;;;;-128.00;-1.00;-1.00;98024;295;1003187;-31
2023/03/11 10:04:19;;;;;;;3.70;2.80;;;;;;;-128.00;-1.00;-1.00;97800;297;1004504;-32
2023/03/11 10:06:45;;;;;;;3.70;3.10;;;;;;;-128.00;-1.00;-1.00;97857;295;1003896;-32
2023/03/11 10:09:43;;;;;;;3.00;1.70;;;;;;;-128.00;-1.00;-1.00;97967;295;1003776;-32
2023/03/11 10:12:33;;;;;;;4.40;2.00;;;;;;;-128.00;-1.00;-1.00;97835;295;1003051;-35
2023/03/11 10:15:23;;;;;;;4.40;3.30;;;;;;;-128.00;-1.00;-1.00;97806;295;1003189;-33
2023/03/11 10:18:18;;;;;;;5.10;4.30;;;;;;;-128.00;-1.00;-1.00;97813;295;1003007;-33
2023/03/11 10:21:16;;;;;;;3.60;2.50;;;;;;;-128.00;-1.00;-1.00;97971;295;1004887;-33
2023/03/11 10:23:59;;;;;;;7.70;3.90;;;;;;;-128.00;-1.00;-1.00;97978;295;1003993;-37
2023/03/11 10:26:32;;;;;;;4.30;3.50;;;;;;;-128.00;-1.00;-1.00;97786;297;1002981;-34
2023/03/11 10:29:15;;;;;;;5.10;2.80;;;;;;;-128.00;-1.00;-1.00;97884;295;1002974;-35
2023/03/11 10:32:01;;;;;;;2.40;1.60;;;;;;;-128.00;-1.00;-1.00;97840;295;1003078;-34
2023/03/11 10:34:32;;;;;;;4.40;3.40;;;;;;;-128.00;-1.00;-1.00;97871;295;1003137;-35
2023/03/11 10:37:03;;;;;;;5.20;2.50;;;;;;;-128.00;-1.00;-1.00;97895;295;1003560;-32
2023/03/11 10:39:30;;;;;;;4.80;3.90;;;;;;;-128.00;-1.00;-1.00;97831;288;1004263;-31
2023/03/11 10:42:03;;;;;;;7.60;4.90;;;;;;;-128.00;-1.00;-1.00;97753;295;1004262;-34
2023/03/11 10:44:41;;;;;;;7.20;4.00;;;;;;;-128.00;-1.00;-1.00;97808;288;1003407;-34
2023/03/11 10:47:20;;;;;;;4.90;3.40;;;;;;;-128.00;-1.00;-1.00;97563;295;1004420;-35
2023/03/11 10:49:46;;;;;;;6.10;4.30;;;;;;;-128.00;-1.00;-1.00;97801;298;1002939;-33
2023/03/11 10:52:11;;;;;;;6.80;4.00;;;;;;;-128.00;-1.00;-1.00;97961;296;1004444;-33
2023/03/11 10:54:44;;;;;;;4.40;3.90;;;;;;;-128.00;-1.00;-1.00;97844;295;1002861;-35
2023/03/11 10:57:27;;;;;;;4.00;3.30;;;;;;;-128.00;-1.00;-1.00;97807;295;1002386;-35
2023/03/11 10:59:57;;;;;;;4.00;3.20;;;;;;;-128.00;-1.00;-1.00;97815;296;1003774;-34
2023/03/11 11:02:28;;;;;;;3.20;2.30;;;;;;;-128.00;-1.00;-1.00;97924;295;1003676;-32
2023/03/11 11:44:40;;;;;;;5.30;3.60;;;;;;;-102.58;19.20;19528.75;68065;294;3004114;-32
2023/03/11 11:47:16;;;;;;;8.40;3.30;;;;;;;-128.00;-1.00;-1.00;18384;300;7504538;-32
2023/03/11 11:49:55;;;;;;;4.30;2.70;;;;;;;-128.00;-1.00;-1.00;18474;286;7504430;-35
2023/03/11 11:52:26;;;;;;;5.60;2.80;;;;;;;-128.00;-1.00;-1.00;18485;295;7506224;-32
2023/03/11 11:54:57;;;;;;;9.00;3.90;;;;;;;-128.00;-1.00;-1.00;18478;322;7507000;-32
2023/03/11 11:57:23;;;;;;;6.70;4.00;;;;;;;-128.00;-1.00;-1.00;18456;347;7504596;-35
2023/03/11 11:59:49;;;;;;;3.10;2.60;;;;;;;-128.00;-1.00;-1.00;18498;294;7505284;-31
2023/03/11 12:02:29;;;;;;;4.40;2.80;;;;;;;-128.00;-1.00;-1.00;18878;294;7504375;-32
2023/03/11 12:05:02;;;;;;;3.80;2.60;;;;;;;-128.00;-1.00;-1.00;18468;286;7505844;-35
2023/03/11 12:07:56;;;;;;;6.40;2.50;;;;;;;-128.00;-1.00;-1.00;18471;294;7504300;-35
2023/03/11 12:10:31;;;;;;;3.70;2.20;;;;;;;-128.00;-1.00;-1.00;18479;294;7504808;-35
2023/03/11 12:13:20;;;;;;;1.90;1.80;;;;;;;-128.00;-1.00;-1.00;18483;294;7504781;-32
2023/03/11 12:15:50;;;;;;;5.00;3.20;;;;;;;-128.00;-1.00;-1.00;18459;295;7507432;-32
2023/03/11 12:18:20;;;;;;;6.00;4.30;;;;;;;-128.00;-1.00;-1.00;18476;286;7504780;-35
2023/03/11 12:20:50;;;;;;;18.60;3.90;;;;;;;-128.00;-1.00;-1.00;18465;294;7504530;-35
2023/03/11 12:23:28;;;;;;;5.20;1.80;;;;;;;-128.00;-1.00;-1.00;18483;294;7506305;-31
2023/03/11 12:26:18;;;;;;;5.30;3.10;;;;;;;-128.00;-1.00;-1.00;18484;294;7504240;-35
2023/03/11 12:28:54;;;;;;;8.20;3.70;;;;;;;-128.00;-1.00;-1.00;18496;294;7504384;-35
2023/03/11 12:31:19;;;;;;;4.90;3.40;;;;;;;-128.00;-1.00;-1.00;18513;294;7504317;-32
2023/03/11 12:33:49;;;;;;;5.80;3.70;;;;;;;-128.00;-1.00;-1.00;18506;284;7506747;-35
2023/03/11 12:36:39;;;;;;;4.70;3.70;;;;;;;-128.00;-1.00;-1.00;18492;295;7504407;-35
2023/03/11 12:39:06;;;;;;;4.70;4.00;;;;;;;-128.00;-1.00;-1.00;18494;286;7505796;-32
2023/03/11 12:41:38;;;;;;;5.40;3.10;;;;;;;-128.00;-1.00;-1.00;18476;294;7504546;-32
2023/03/11 12:44:28;;;;;;;3.40;2.50;;;;;;;-128.00;-1.00;-1.00;18455;294;7504364;-35
2023/03/11 12:47:00;;;;;;;4.60;1.60;;;;;;;-128.00;-1.00;-1.00;18518;296;7505073;-32
2023/03/11 12:49:31;;;;;;;4.20;2.90;;;;;;;-128.00;-1.00;-1.00;18487;302;7504134;-31
2023/03/11 12:52:19;;;;;;;5.80;3.60;;;;;;;-128.00;-1.00;-1.00;18503;294;7505342;-32
2023/03/11 12:54:45;;;;;;;9.30;2.90;;;;;;;-128.00;-1.00;-1.00;18481;294;7505505;-31
2023/03/11 12:57:34;;;;;;;6.20;3.40;;;;;;;-128.00;-1.00;-1.00;18460;346;7504949;-33